createdAt,value
2019-02-11T00:02:27.840Z,97314.77
2019-02-11T00:05:32.745Z,97312.12
2019-02-11T00:08:37.127Z,97323.28
2019-02-11T00:11:41.839Z,97346.69
2019-02-11T00:14:46.279Z,97337.65
2019-02-11T00:17:50.999Z,97342.39
2019-02-11T00:20:55.730Z,97340.53
2019-02-11T00:24:00.154Z,97342.13
2019-02-11T00:27:04.579Z,97353.81
2019-02-11T00:30:11.433Z,97338.12
2019-02-11T00:33:15.872Z,97343.45
2019-02-11T00:36:20.297Z,97321.41
2019-02-11T00:39:25.041Z,97318.70
2019-02-11T00:42:29.467Z,97332.80
2019-02-11T00:45:34.187Z,97329.33
2019-02-11T00:48:38.627Z,97333.84
2019-02-11T00:51:43.330Z,97332.23
2019-02-11T00:54:47.771Z,97338.33
2019-02-11T00:57:52.490Z,97322.39
2019-02-11T01:00:57.217Z,97314.38
2019-02-11T01:04:01.654Z,97313.59
2019-02-11T01:07:07.683Z,97318.85
2019-02-11T01:10:12.425Z,97318.08
2019-02-11T01:13:16.857Z,97334.80
2019-02-11T01:16:21.288Z,97347.01
2019-02-11T01:19:26.010Z,97354.98
2019-02-11T01:22:30.432Z,97365.41
2019-02-11T01:25:35.480Z,97355.02
2019-02-11T01:28:39.913Z,97366.98
2019-02-11T01:31:44.624Z,97370.68
2019-02-11T01:34:49.063Z,97371.48
2019-02-11T01:37:53.887Z,97375.19
2019-02-11T01:40:58.317Z,97388.25
2019-02-11T01:44:03.038Z,97402.06
2019-02-11T01:47:07.479Z,97406.06
2019-02-11T01:50:13.694Z,97427.09
2019-02-11T01:53:18.120Z,97416.47
2019-02-11T01:56:22.557Z,97427.10
2019-02-11T01:59:26.993Z,97434.28
2019-02-11T02:02:31.419Z,97437.47
2019-02-11T02:05:36.218Z,97436.69
2019-02-11T02:08:41.085Z,97442.58
2019-02-11T02:11:45.816Z,97430.86
2019-02-11T02:14:50.552Z,97441.73
2019-02-11T02:17:55.275Z,97444.70
2019-02-11T02:20:59.715Z,97447.11
2019-02-11T02:24:04.142Z,97456.95
2019-02-11T02:27:08.574Z,97445.76
2019-02-11T02:30:16.135Z,97454.31
2019-02-11T02:33:20.549Z,97469.70
2019-02-11T02:36:24.985Z,97468.16
2019-02-11T02:39:29.743Z,97474.48
2019-02-11T02:42:34.179Z,97473.68
2019-02-11T02:45:38.886Z,97478.21
2019-02-11T02:48:43.312Z,97471.33
2019-02-11T02:51:47.742Z,97483.30
2019-02-11T02:54:52.559Z,97496.02
2019-02-11T02:57:57.297Z,97504.89
2019-02-11T03:01:01.725Z,97506.44
2019-02-11T03:04:06.446Z,97515.42
2019-02-11T03:07:11.178Z,97518.00
2019-02-11T03:10:15.611Z,97512.95
2019-02-11T03:13:20.327Z,97529.14
2019-02-11T03:16:25.067Z,97537.09
2019-02-11T03:19:29.796Z,97554.59
2019-02-11T03:22:34.233Z,97546.71
2019-02-11T03:25:38.667Z,97557.23
2019-02-11T03:28:43.100Z,97562.42
2019-02-11T03:31:47.805Z,97570.57
2019-02-11T03:34:52.219Z,97579.14
2019-02-11T03:37:56.657Z,97591.90
2019-02-11T03:41:01.474Z,97606.06
2019-02-11T03:44:14.576Z,97605.86
2019-02-11T03:47:12.373Z,97609.19
2019-02-11T03:50:16.801Z,97610.42
2019-02-11T03:53:21.239Z,97612.74
2019-02-11T03:56:25.681Z,97614.67
2019-02-11T03:59:30.580Z,97609.52
2019-02-11T04:02:35.015Z,97618.34
2019-02-11T04:05:39.476Z,97618.62
2019-02-11T04:08:43.899Z,97621.23
2019-02-11T04:11:48.692Z,97630.82
2019-02-11T04:14:53.423Z,97631.33
2019-02-11T04:17:57.855Z,97644.23
2019-02-11T04:21:02.280Z,97645.55
2019-02-11T04:24:06.711Z,97653.07
2019-02-11T04:27:11.142Z,97659.50
2019-02-11T04:30:15.840Z,97657.80
2019-02-11T04:33:20.572Z,97656.47
2019-02-11T04:36:25.299Z,97652.53
2019-02-11T04:39:30.030Z,97672.04
2019-02-11T04:42:34.467Z,97666.38
2019-02-11T04:45:39.192Z,97679.02
2019-02-11T04:48:43.628Z,97689.73
2019-02-11T04:51:48.062Z,97691.20
2019-02-11T04:54:52.486Z,97702.86
2019-02-11T04:57:57.182Z,97708.27
2019-02-11T05:01:01.611Z,97710.70
2019-02-11T05:04:06.054Z,97717.04
2019-02-11T05:07:10.480Z,97730.83
2019-02-11T05:10:17.050Z,97731.43
2019-02-11T05:13:21.497Z,97733.88
2019-02-11T05:16:25.917Z,97738.41
2019-02-11T05:19:30.728Z,97754.58
2019-02-11T05:22:35.439Z,97756.69
2019-02-11T05:25:39.867Z,97743.60
2019-02-11T05:28:44.295Z,97741.22
2019-02-11T05:31:48.784Z,97754.03
2019-02-11T05:34:53.542Z,97754.73
2019-02-11T05:37:57.984Z,97759.84
2019-02-11T05:41:02.700Z,97767.14
2019-02-11T05:44:07.432Z,97773.27
2019-02-11T05:47:11.855Z,97771.33
2019-02-11T05:50:16.291Z,97796.59
2019-02-11T05:53:21.011Z,97786.44
2019-02-11T05:56:25.745Z,97795.84
2019-02-11T05:59:30.468Z,97795.12
2019-02-11T06:02:34.899Z,97804.14
2019-02-11T06:05:39.378Z,97799.98
2019-02-11T06:08:44.160Z,97812.13
2019-02-11T06:11:48.591Z,97815.84
2019-02-11T06:14:55.377Z,97826.92
2019-02-11T06:17:59.182Z,97837.50
2019-02-11T06:21:03.660Z,97838.88
2019-02-11T06:24:08.427Z,97857.41
2019-02-11T06:27:12.863Z,97860.55
2019-02-11T06:30:17.294Z,97868.44
2019-02-11T06:33:22.096Z,97877.43
2019-02-11T06:36:26.935Z,97877.38
2019-02-11T06:39:32.082Z,97887.14
2019-02-11T06:42:36.538Z,97894.73
2019-02-11T06:45:40.977Z,97911.11
2019-02-11T06:48:45.757Z,97910.54
2019-02-11T06:51:50.183Z,97928.36
2019-02-11T06:54:54.609Z,97942.39
2019-02-11T06:57:59.040Z,97956.43
2019-02-11T07:01:03.855Z,97965.20
2019-02-11T07:04:08.291Z,97977.16
2019-02-11T07:07:12.722Z,97984.57
2019-02-11T07:10:17.443Z,97996.63
2019-02-11T07:13:22.273Z,97999.20
2019-02-11T07:16:26.744Z,98002.50
2019-02-11T07:19:31.530Z,98019.64
2019-02-11T07:22:35.960Z,98022.55
2019-02-11T07:25:40.392Z,98032.97
2019-02-11T07:28:45.207Z,98047.44
2019-02-11T07:31:49.938Z,98052.45
2019-02-11T07:34:54.380Z,98056.58
2019-02-11T07:37:59.214Z,98066.22
2019-02-11T07:41:03.660Z,98076.92
2019-02-11T07:44:12.144Z,98074.89
2019-02-11T07:47:16.864Z,98087.02
2019-02-11T07:50:21.300Z,98089.23
2019-02-11T07:53:26.020Z,98085.94
2019-02-11T07:56:30.478Z,98094.42
2019-02-11T07:59:35.175Z,98097.03
2019-02-11T08:02:40.496Z,98105.42
2019-02-11T08:05:45.475Z,98116.31
2019-02-11T08:08:50.801Z,98117.78
2019-02-11T08:11:55.538Z,98132.32
2019-02-11T08:14:59.982Z,98136.12
2019-02-11T08:18:04.535Z,98148.83
2019-02-11T08:21:08.972Z,98154.90
2019-02-11T08:24:13.395Z,98158.06
2019-02-11T08:27:17.867Z,98161.30
2019-02-11T08:30:22.316Z,98165.70
2019-02-11T08:33:27.012Z,98158.30
2019-02-11T08:36:31.743Z,98160.62
2019-02-11T08:39:36.477Z,98190.31
2019-02-11T08:42:40.905Z,98191.19
2019-02-11T08:45:47.170Z,98180.27
2019-02-11T08:48:51.839Z,98192.41
2019-02-11T08:51:56.272Z,98200.34
2019-02-11T08:55:00.709Z,98204.03
2019-02-11T08:58:05.136Z,98212.63
2019-02-11T09:01:09.572Z,98215.28
2019-02-11T09:04:18.919Z,98217.76
2019-02-11T09:07:20.790Z,98227.39
2019-02-11T09:10:25.221Z,98232.13
2019-02-11T09:13:29.650Z,98229.73
2019-02-11T09:16:34.368Z,98229.67
2019-02-11T09:19:38.794Z,98242.59
2019-02-11T09:22:43.522Z,98244.52
2019-02-11T09:25:48.253Z,98248.94
2019-02-11T09:28:52.994Z,98266.66
2019-02-11T09:31:57.438Z,98266.86
2019-02-11T09:35:02.129Z,98276.05
2019-02-11T09:38:06.576Z,98285.68
2019-02-11T09:41:11.091Z,98290.05
2019-02-11T09:44:15.817Z,98296.66
2019-02-11T09:47:20.254Z,98289.03
2019-02-11T09:50:47.791Z,98299.94
2019-02-11T09:53:52.228Z,98293.37
2019-02-11T09:56:56.658Z,98298.80
2019-02-11T10:00:01.087Z,98310.52
2019-02-11T10:03:06.215Z,98311.25
2019-02-11T10:06:10.945Z,98324.59
2019-02-11T10:09:15.677Z,98330.88
2019-02-11T10:12:21.463Z,98337.46
2019-02-11T10:15:26.026Z,98338.17
2019-02-11T10:18:30.472Z,98354.77
2019-02-11T10:21:34.918Z,98364.55
2019-02-11T10:24:39.333Z,98371.72
2019-02-11T10:27:43.842Z,98382.06
2019-02-11T10:30:48.269Z,98393.04
2019-02-11T10:33:53.006Z,98399.45
2019-02-11T10:36:57.437Z,98396.37
2019-02-11T10:40:02.165Z,98409.94
2019-02-11T10:43:06.896Z,98409.36
2019-02-11T10:46:11.627Z,98408.08
2019-02-11T10:49:16.354Z,98423.35
2019-02-11T10:52:20.966Z,98432.18
2019-02-11T10:55:26.312Z,98426.70
2019-02-11T10:58:30.952Z,98446.84
2019-02-11T11:01:35.454Z,98447.80
2019-02-11T11:04:40.215Z,98457.75
2019-02-11T11:07:45.143Z,98464.90
2019-02-11T11:10:50.119Z,98459.22
2019-02-11T11:13:54.922Z,98466.88
2019-02-11T11:16:59.361Z,98480.62
2019-02-11T11:20:05.676Z,98474.41
2019-02-11T11:23:10.124Z,98476.63
2019-02-11T11:26:14.608Z,98480.27
2019-02-11T11:29:19.121Z,98487.41
2019-02-11T11:32:23.576Z,98488.04
2019-02-11T11:35:28.353Z,98488.64
2019-02-11T11:38:32.838Z,98505.04
2019-02-11T11:41:37.657Z,98501.63
2019-02-11T11:44:42.097Z,98507.67
2019-02-11T11:47:46.822Z,98507.78
2019-02-11T11:50:51.580Z,98516.92
2019-02-11T11:53:56.347Z,98515.48
2019-02-11T11:57:00.818Z,98532.19
2019-02-11T12:00:09.978Z,98529.52
2019-02-11T12:03:14.470Z,98542.02
2019-02-11T12:06:18.920Z,98537.89
2019-02-11T12:09:23.367Z,98541.41
2019-02-11T12:12:27.797Z,98535.23
2019-02-11T12:15:32.257Z,98540.75
2019-02-11T12:18:36.694Z,98551.95
2019-02-11T12:21:41.225Z,98549.68
2019-02-11T12:24:45.663Z,98551.07
2019-02-11T12:27:50.105Z,98554.97
2019-02-11T12:30:54.677Z,98547.46
2019-02-11T12:33:59.157Z,98550.77
2019-02-11T12:37:03.586Z,98551.91
2019-02-11T12:40:10.948Z,98546.23
2019-02-11T12:43:15.703Z,98546.82
2019-02-11T12:46:20.142Z,98558.34
2019-02-11T12:49:24.861Z,98554.30
2019-02-11T12:52:29.300Z,98565.80
2019-02-11T12:55:33.731Z,98573.53
2019-02-11T12:58:38.427Z,98561.66
2019-02-11T13:01:42.898Z,98560.98
2019-02-11T13:04:47.581Z,98565.70
2019-02-11T13:07:52.037Z,98568.42
2019-02-11T13:10:56.534Z,98568.08
2019-02-11T13:14:00.980Z,98572.34
2019-02-11T13:17:15.026Z,98572.33
2019-02-11T13:20:16.258Z,98581.16
2019-02-11T13:23:20.691Z,98582.63
2019-02-11T13:26:25.161Z,98574.97
2019-02-11T13:29:29.563Z,98580.38
2019-02-11T13:32:34.366Z,98585.63
2019-02-11T13:35:38.837Z,98577.13
2019-02-11T13:38:43.546Z,98575.43
2019-02-11T13:41:47.997Z,98584.56
2019-02-11T13:44:52.443Z,98598.33
2019-02-11T13:47:58.682Z,98596.61
2019-02-11T13:51:03.166Z,98600.89
2019-02-11T13:54:07.592Z,98594.59
2019-02-11T13:57:12.044Z,98602.25
2019-02-11T14:00:26.328Z,98605.61
2019-02-11T14:03:30.741Z,98608.23
2019-02-11T14:06:35.193Z,98624.27
2019-02-11T14:09:39.621Z,98633.06
2019-02-11T14:12:44.083Z,98636.42
2019-02-11T14:15:48.503Z,98657.11
2019-02-11T14:18:53.212Z,98664.58
2019-02-11T14:21:59.191Z,98670.88
2019-02-11T14:25:03.882Z,98683.00
2019-02-11T14:28:08.630Z,98691.20
2019-02-11T14:31:13.364Z,98698.79
2019-02-11T14:34:18.082Z,98713.39
2019-02-11T14:37:22.551Z,98717.42
2019-02-11T14:40:26.960Z,98718.25
2019-02-11T14:43:31.407Z,98715.98
2019-02-11T14:46:35.837Z,98715.00
2019-02-11T14:49:40.264Z,98722.30
2019-02-11T14:52:44.690Z,98728.20
2019-02-11T14:55:49.467Z,98726.38
2019-02-11T14:58:53.965Z,98730.56
2019-02-11T15:01:58.405Z,98751.58
2019-02-11T15:05:03.141Z,98745.02
2019-02-11T15:08:07.580Z,98740.97
2019-02-11T15:11:12.025Z,98746.23
2019-02-11T15:14:16.456Z,98747.30
2019-02-11T15:17:21.044Z,98752.91
2019-02-11T15:20:25.775Z,98762.77
2019-02-11T15:23:30.507Z,98769.78
2019-02-11T15:26:35.227Z,98770.76
2019-02-11T15:29:39.653Z,98771.19
2019-02-11T15:32:44.381Z,98782.00
2019-02-11T15:35:49.738Z,98777.03
2019-02-11T15:38:54.167Z,98781.13
2019-02-11T15:41:58.617Z,98788.48
2019-02-11T15:45:03.830Z,98793.77
2019-02-11T15:48:08.257Z,98795.55
2019-02-11T15:51:12.679Z,98808.48
2019-02-11T15:54:17.391Z,98821.76
2019-02-11T15:57:22.123Z,98828.86
2019-02-11T16:00:26.857Z,98826.95
2019-02-11T16:03:31.308Z,98841.48
2019-02-11T16:06:38.184Z,98840.55
2019-02-11T16:09:42.191Z,98847.11
2019-02-11T16:12:46.629Z,98846.12
2019-02-11T16:15:51.177Z,98853.20
2019-02-11T16:18:55.615Z,98860.13
2019-02-11T16:22:00.059Z,98865.52
2019-02-11T16:25:05.646Z,98852.84
2019-02-11T16:28:10.088Z,98874.40
2019-02-11T16:31:14.509Z,98877.73
2019-02-11T16:34:19.200Z,98876.71
2019-02-11T16:37:23.633Z,98885.56
2019-02-11T16:40:32.481Z,98884.92
2019-02-11T16:43:36.916Z,98898.05
2019-02-11T16:46:41.344Z,98911.28
2019-02-11T16:49:45.774Z,98921.46
2019-02-11T16:52:50.674Z,98929.60
2019-02-11T16:55:55.096Z,98932.06
2019-02-11T16:58:59.531Z,98925.52
2019-02-11T17:02:03.960Z,98922.31
2019-02-11T17:05:11.101Z,98921.61
2019-02-11T17:08:15.856Z,98915.86
2019-02-11T17:11:20.579Z,98935.91
2019-02-11T17:14:25.011Z,98947.00
2019-02-11T17:17:29.450Z,98955.94
2019-02-11T17:20:33.882Z,98959.14
2019-02-11T17:23:38.688Z,98959.89
2019-02-11T17:26:43.413Z,98963.85
2019-02-11T17:29:47.856Z,98968.44
2019-02-11T17:32:52.455Z,98970.48
2019-02-11T17:35:56.890Z,98966.01
2019-02-11T17:39:01.342Z,98971.61
2019-02-11T17:42:06.047Z,98974.02
2019-02-11T17:45:30.129Z,98964.65
2019-02-11T17:48:34.561Z,98973.73
2019-02-11T17:51:38.990Z,98977.96
2019-02-11T17:54:43.714Z,98979.67
2019-02-11T17:57:48.152Z,98975.97
2019-02-11T18:00:57.106Z,98985.67
2019-02-11T18:04:01.894Z,99008.06
2019-02-11T18:07:06.312Z,99015.41
2019-02-11T18:10:10.749Z,99028.92
2019-02-11T18:13:15.486Z,99043.54
2019-02-11T18:16:20.211Z,99043.05
2019-02-11T18:19:26.166Z,99051.48
2019-02-11T18:22:31.196Z,99055.45
2019-02-11T18:25:35.634Z,99055.94
2019-02-11T18:28:40.068Z,99059.61
2019-02-11T18:31:44.495Z,99054.81
2019-02-11T18:34:48.940Z,99067.97
2019-02-11T18:37:53.370Z,99084.11
2019-02-11T18:40:57.792Z,99086.85
2019-02-11T18:44:02.221Z,99090.31
2019-02-11T18:47:06.656Z,99090.17
2019-02-11T18:50:13.810Z,99100.22
2019-02-11T18:53:18.235Z,99109.02
2019-02-11T18:56:23.131Z,99116.92
2019-02-11T18:59:27.561Z,99114.77
2019-02-11T19:02:31.984Z,99120.30
2019-02-11T19:05:36.710Z,99124.28
2019-02-11T19:08:41.152Z,99127.86
2019-02-11T19:11:45.864Z,99145.89
2019-02-11T19:14:50.593Z,99137.43
2019-02-11T19:17:55.017Z,99144.65
2019-02-11T19:20:59.747Z,99147.77
2019-02-11T19:24:04.177Z,99155.53
2019-02-11T19:27:08.603Z,99154.93
2019-02-11T19:30:27.471Z,99164.25
2019-02-11T19:33:32.186Z,99179.39
2019-02-11T19:36:36.620Z,99186.05
2019-02-11T19:39:41.059Z,99190.73
2019-02-11T19:42:45.482Z,99193.25
2019-02-11T19:45:49.920Z,99191.60
2019-02-11T19:48:54.612Z,99201.30
2019-02-11T19:51:59.038Z,99198.16
2019-02-11T19:55:03.474Z,99218.21
2019-02-11T19:58:08.288Z,99210.70
2019-02-11T20:01:13.036Z,99230.67
2019-02-11T20:04:17.759Z,99238.64
2019-02-11T20:07:22.487Z,99239.87
2019-02-11T20:10:27.222Z,99248.09
2019-02-11T20:13:31.645Z,99259.79
2019-02-11T20:16:36.373Z,99264.06
2019-02-11T20:19:41.097Z,99256.44
2019-02-11T20:22:45.523Z,99269.87
2019-02-11T20:25:49.959Z,99274.24
2019-02-11T20:28:54.384Z,99281.08
2019-02-11T20:31:59.100Z,99285.16
2019-02-11T20:35:03.809Z,99292.66
2019-02-11T20:38:08.241Z,99293.17
2019-02-11T20:41:12.680Z,99303.52
2019-02-11T20:44:17.413Z,99301.36
2019-02-11T20:47:22.142Z,99306.45
2019-02-11T20:50:26.657Z,99312.48
2019-02-11T20:53:31.395Z,99312.45
2019-02-11T20:56:36.234Z,99318.05
2019-02-11T20:59:40.660Z,99327.39
2019-02-11T21:02:45.493Z,99336.80
2019-02-11T21:05:49.927Z,99342.05
2019-02-11T21:08:54.646Z,99343.16
2019-02-11T21:11:59.381Z,99347.46
2019-02-11T21:15:04.532Z,99355.73
2019-02-11T21:18:09.247Z,99356.23
2019-02-11T21:21:13.678Z,99357.16
2019-02-11T21:24:18.415Z,99366.23
2019-02-11T21:27:23.133Z,99360.34
2019-02-11T21:30:27.568Z,99359.70
2019-02-11T21:33:32.000Z,99347.03
2019-02-11T21:36:36.813Z,99338.98
2019-02-11T21:39:41.239Z,99345.11
2019-02-11T21:42:45.680Z,99341.14
2019-02-11T21:45:50.391Z,99340.11
2019-02-11T21:48:55.121Z,99345.41
2019-02-11T21:51:59.554Z,99334.99
2019-02-11T21:55:05.216Z,99331.51
2019-02-11T21:58:09.931Z,99331.44
2019-02-11T22:01:14.963Z,99332.34
2019-02-11T22:04:19.706Z,99342.14
2019-02-11T22:07:24.139Z,99339.16
2019-02-11T22:10:28.577Z,99339.21
2019-02-11T22:13:33.012Z,99345.81
2019-02-11T22:16:37.447Z,99350.91
2019-02-11T22:19:42.230Z,99362.34
2019-02-11T22:22:46.741Z,99370.70
2019-02-11T22:25:51.164Z,99375.73
2019-02-11T22:28:55.603Z,99375.44
2019-02-11T22:32:00.326Z,99385.76
2019-02-11T22:35:08.059Z,99389.19
2019-02-11T22:38:12.497Z,99394.33
2019-02-11T22:41:17.195Z,99401.48
2019-02-11T22:44:21.635Z,99407.76
2019-02-11T22:47:26.078Z,99416.48
2019-02-11T22:50:30.758Z,99425.97
2019-02-11T22:53:35.193Z,99427.71
2019-02-11T22:56:39.624Z,99432.11
2019-02-11T22:59:44.061Z,99446.96
2019-02-11T23:02:48.493Z,99442.14
2019-02-11T23:05:52.917Z,99441.52
2019-02-11T23:08:57.366Z,99441.11
2019-02-11T23:12:01.800Z,99452.29
2019-02-11T23:15:09.149Z,99445.42
2019-02-11T23:18:13.584Z,99454.08
2019-02-11T23:21:18.017Z,99454.70
2019-02-11T23:24:22.452Z,99471.53
2019-02-11T23:27:26.878Z,99471.56
2019-02-11T23:30:31.308Z,99476.41
2019-02-11T23:33:35.748Z,99476.95
2019-02-11T23:36:40.491Z,99473.55
2019-02-11T23:39:44.925Z,99471.84
2019-02-11T23:42:49.365Z,99467.95
2019-02-11T23:45:53.796Z,99469.44
2019-02-11T23:48:58.488Z,99482.39
2019-02-11T23:52:02.933Z,99484.26
2019-02-11T23:55:09.977Z,99493.23
2019-02-11T23:58:14.734Z,99506.78
